createdAt,value
2018-12-12T00:02:24.780Z,101489.05
2018-12-12T00:04:53.010Z,101485.52
2018-12-12T00:07:21.284Z,101481.11
2018-12-12T00:09:49.494Z,101490.83
2018-12-12T00:12:17.732Z,101485.51
2018-12-12T00:14:45.943Z,101482.89
2018-12-12T00:17:14.196Z,101484.20
2018-12-12T00:19:42.417Z,101475.36
2018-12-12T00:22:10.678Z,101476.70
2018-12-12T00:24:38.893Z,101484.64
2018-12-12T00:27:07.122Z,101491.28
2018-12-12T00:29:35.344Z,101485.96
2018-12-12T00:32:03.568Z,101492.59
2018-12-12T00:34:31.813Z,101499.20
2018-12-12T00:37:00.032Z,101491.71
2018-12-12T00:39:28.353Z,101497.88
2018-12-12T00:41:56.499Z,101493.48
2018-12-12T00:44:24.748Z,101496.13
2018-12-12T00:46:52.976Z,101491.26
2018-12-12T00:49:21.225Z,101503.64
2018-12-12T00:51:49.460Z,101498.77
2018-12-12T00:54:17.700Z,101493.48
2018-12-12T00:56:45.966Z,101491.27
2018-12-12T00:59:14.201Z,101498.34
2018-12-12T01:01:42.431Z,101502.30
2018-12-12T01:04:10.687Z,101504.96
2018-12-12T01:06:38.930Z,101506.30
2018-12-12T01:09:07.311Z,101511.13
2018-12-12T01:11:54.668Z,101508.94
2018-12-12T01:14:22.935Z,101512.03
2018-12-12T01:16:51.138Z,101517.31
2018-12-12T01:19:38.801Z,101519.97
2018-12-12T01:22:07.039Z,101519.52
2018-12-12T01:24:35.278Z,101521.30
2018-12-12T01:27:03.532Z,101530.56
2018-12-12T01:29:31.825Z,101531.02
2018-12-12T01:32:00.103Z,101523.52
2018-12-12T01:34:28.361Z,101531.02
2018-12-12T01:36:56.570Z,101536.31
2018-12-12T01:39:24.808Z,101542.50
2018-12-12T01:41:53.018Z,101546.48
2018-12-12T01:44:21.246Z,101538.08
2018-12-12T01:46:49.454Z,101538.96
2018-12-12T01:49:17.708Z,101544.70
2018-12-12T01:51:45.929Z,101539.41
2018-12-12T01:54:14.162Z,101547.38
2018-12-12T01:56:42.409Z,101543.39
2018-12-12T01:59:10.637Z,101549.13
2018-12-12T02:01:38.891Z,101550.03
2018-12-12T02:04:07.312Z,101550.02
2018-12-12T02:06:35.550Z,101557.52
2018-12-12T02:09:03.798Z,101556.63
2018-12-12T02:11:32.044Z,101557.09
2018-12-12T02:14:00.293Z,101559.28
2018-12-12T02:16:28.547Z,101562.39
2018-12-12T02:18:56.756Z,101559.74
2018-12-12T02:21:25.014Z,101563.28
2018-12-12T02:23:53.250Z,101565.94
2018-12-12T02:26:21.578Z,101562.39
2018-12-12T02:28:49.806Z,101566.36
2018-12-12T02:31:18.048Z,101562.83
2018-12-12T02:33:46.264Z,101565.49
2018-12-12T02:36:14.498Z,101571.66
2018-12-12T02:38:42.775Z,101565.03
2018-12-12T02:41:10.962Z,101567.23
2018-12-12T02:43:39.180Z,101575.64
2018-12-12T02:46:07.401Z,101580.05
2018-12-12T02:48:35.612Z,101592.42
2018-12-12T02:51:03.896Z,101589.34
2018-12-12T02:53:32.090Z,101585.82
2018-12-12T02:56:00.317Z,101593.77
2018-12-12T02:58:28.549Z,101596.84
2018-12-12T03:00:56.765Z,101605.23
2018-12-12T03:03:25.041Z,101605.25
2018-12-12T03:05:53.272Z,101599.93
2018-12-12T03:08:21.516Z,101598.17
2018-12-12T03:10:49.706Z,101595.52
2018-12-12T03:13:17.935Z,101605.69
2018-12-12T03:15:46.147Z,101597.29
2018-12-12T03:18:14.351Z,101595.97
2018-12-12T03:20:42.565Z,101606.13
2018-12-12T03:23:10.820Z,101613.66
2018-12-12T03:25:39.049Z,101610.55
2018-12-12T03:28:07.273Z,101610.12
2018-12-12T03:30:35.461Z,101612.76
2018-12-12T03:33:03.701Z,101619.83
2018-12-12T03:35:31.899Z,101622.94
2018-12-12T03:38:00.127Z,101622.92
2018-12-12T03:40:28.396Z,101626.03
2018-12-12T03:42:56.566Z,101630.89
2018-12-12T03:45:24.766Z,101631.32
2018-12-12T03:47:52.981Z,101634.41
2018-12-12T03:50:21.202Z,101640.61
2018-12-12T03:52:49.417Z,101640.60
2018-12-12T03:55:17.628Z,101644.16
2018-12-12T03:57:45.820Z,101639.28
2018-12-12T04:00:14.032Z,101646.35
2018-12-12T04:02:42.257Z,101649.00
2018-12-12T04:05:10.480Z,101650.77
2018-12-12T04:07:38.698Z,101652.09
2018-12-12T04:10:07.138Z,101652.98
2018-12-12T04:12:35.353Z,101654.33
2018-12-12T04:15:03.575Z,101661.39
2018-12-12T04:17:31.781Z,101665.81
2018-12-12T04:20:00.024Z,101671.11
2018-12-12T04:22:28.276Z,101670.67
2018-12-12T04:24:56.539Z,101673.77
2018-12-12T04:27:24.729Z,101677.73
2018-12-12T04:29:52.939Z,101683.06
2018-12-12T04:32:21.156Z,101682.61
2018-12-12T04:34:49.369Z,101683.05
2018-12-12T04:37:17.584Z,101681.28
2018-12-12T04:39:45.829Z,101687.91
2018-12-12T04:42:14.049Z,101687.02
2018-12-12T04:44:42.283Z,101686.14
2018-12-12T04:47:10.507Z,101686.14
2018-12-12T04:49:38.733Z,101684.39
2018-12-12T04:52:06.956Z,101691.47
2018-12-12T04:54:35.172Z,101689.25
2018-12-12T04:57:03.405Z,101687.02
2018-12-12T04:59:31.609Z,101700.73
2018-12-12T05:01:59.796Z,101699.41
2018-12-12T05:04:28.023Z,101691.00
2018-12-12T05:06:56.265Z,101702.05
2018-12-12T05:09:24.491Z,101701.62
2018-12-12T05:11:52.717Z,101710.91
2018-12-12T05:14:20.971Z,101710.00
2018-12-12T05:16:56.489Z,101703.81
2018-12-12T05:21:58.908Z,101710.89
2018-12-12T05:24:27.188Z,101718.84
2018-12-12T05:26:55.407Z,101717.06
2018-12-12T05:29:23.630Z,101715.72
2018-12-12T05:31:51.860Z,101713.97
2018-12-12T05:34:20.082Z,101718.35
2018-12-12T05:36:56.608Z,101724.95
2018-12-12T05:39:25.496Z,101731.12
2018-12-12T05:41:53.846Z,101732.45
2018-12-12T05:44:23.181Z,101735.95
2018-12-12T05:46:50.283Z,101733.28
2018-12-12T05:49:18.508Z,101728.44
2018-12-12T05:51:46.734Z,101742.55
2018-12-12T05:54:14.975Z,101741.21
2018-12-12T05:56:43.265Z,101739.86
2018-12-12T05:59:11.461Z,101747.83
2018-12-12T06:01:39.693Z,101746.48
2018-12-12T06:04:07.906Z,101743.81
2018-12-12T06:06:36.155Z,101764.12
2018-12-12T06:09:06.464Z,101758.35
2018-12-12T06:11:34.691Z,101757.50
2018-12-12T06:14:02.939Z,101759.27
2018-12-12T06:16:31.203Z,101763.67
2018-12-12T06:18:59.420Z,101768.98
2018-12-12T06:21:27.686Z,101772.95
2018-12-12T06:23:58.931Z,101772.93
2018-12-12T06:26:27.176Z,101774.70
2018-12-12T06:28:55.421Z,101776.45
2018-12-12T06:31:23.660Z,101774.69
2018-12-12T06:33:51.895Z,101780.44
2018-12-12T06:36:20.550Z,101778.67
2018-12-12T06:38:53.900Z,101773.34
2018-12-12T06:41:25.421Z,101780.84
2018-12-12T06:43:53.636Z,101783.50
2018-12-12T06:46:21.879Z,101787.50
2018-12-12T06:48:50.113Z,101791.92
2018-12-12T06:51:18.327Z,101799.42
2018-12-12T06:53:46.553Z,101803.40
2018-12-12T06:56:14.781Z,101805.13
2018-12-12T06:58:43.028Z,101810.43
2018-12-12T07:01:11.287Z,101813.52
2018-12-12T07:03:39.537Z,101812.20
2018-12-12T07:06:07.761Z,101806.87
2018-12-12T07:08:36.017Z,101817.50
2018-12-12T07:11:04.316Z,101825.00
2018-12-12T07:13:35.757Z,101821.91
2018-12-12T07:16:00.688Z,101831.59
2018-12-12T07:18:28.920Z,101828.95
2018-12-12T07:20:57.139Z,101826.73
2018-12-12T07:23:25.397Z,101834.22
2018-12-12T07:25:53.607Z,101836.42
2018-12-12T07:28:21.848Z,101839.52
2018-12-12T07:30:50.051Z,101842.60
2018-12-12T07:33:18.287Z,101839.07
2018-12-12T07:35:46.505Z,101846.20
2018-12-12T07:38:14.737Z,101850.61
2018-12-12T07:40:42.963Z,101848.38
2018-12-12T07:43:11.223Z,101849.25
2018-12-12T07:45:39.453Z,101849.73
2018-12-12T07:48:27.112Z,101848.84
2018-12-12T07:50:55.379Z,101852.38
2018-12-12T07:53:23.611Z,101858.08
2018-12-12T07:55:51.817Z,101863.41
2018-12-12T07:58:20.082Z,101872.27
2018-12-12T08:00:48.427Z,101873.19
2018-12-12T08:03:16.660Z,101870.50
2018-12-12T08:05:44.891Z,101869.65
2018-12-12T08:08:13.137Z,101871.39
2018-12-12T08:10:41.384Z,101865.23
2018-12-12T08:13:09.589Z,101870.59
2018-12-12T08:15:37.836Z,101871.52
2018-12-12T08:18:06.062Z,101868.48
2018-12-12T08:20:34.345Z,101871.59
2018-12-12T08:23:02.602Z,101871.19
2018-12-12T08:25:30.848Z,101863.67
2018-12-12T08:27:59.103Z,101867.64
2018-12-12T08:30:27.424Z,101876.51
2018-12-12T08:32:55.624Z,101876.52
2018-12-12T08:35:23.828Z,101873.89
2018-12-12T08:37:52.031Z,101876.56
2018-12-12T08:40:20.333Z,101883.25
2018-12-12T08:42:48.548Z,101881.46
2018-12-12T08:45:16.865Z,101882.81
2018-12-12T08:47:45.088Z,101888.12
2018-12-12T08:50:15.557Z,101890.80
2018-12-12T08:52:43.813Z,101886.39
2018-12-12T08:55:17.609Z,101887.71
2018-12-12T08:57:40.301Z,101889.06
2018-12-12T09:00:08.574Z,101897.89
2018-12-12T09:02:36.788Z,101906.34
2018-12-12T09:05:05.373Z,101899.67
2018-12-12T09:07:33.577Z,101903.22
2018-12-12T09:10:01.781Z,101908.53
2018-12-12T09:12:30.002Z,101905.89
2018-12-12T09:14:58.225Z,101908.13
2018-12-12T09:17:26.481Z,101908.13
2018-12-12T09:19:54.706Z,101905.93
2018-12-12T09:22:22.981Z,101916.08
2018-12-12T09:24:51.371Z,101920.53
2018-12-12T09:27:19.553Z,101923.18
2018-12-12T09:29:47.761Z,101917.02
2018-12-12T09:32:15.975Z,101910.83
2018-12-12T09:34:44.208Z,101910.40
2018-12-12T09:37:12.509Z,101917.49
2018-12-12T09:39:40.709Z,101917.97
2018-12-12T09:42:08.941Z,101916.16
2018-12-12T09:44:37.196Z,101919.69
2018-12-12T09:47:05.617Z,101917.48
2018-12-12T09:49:33.819Z,101919.23
2018-12-12T09:52:02.086Z,101918.81
2018-12-12T09:54:30.311Z,101920.58
2018-12-12T09:56:58.537Z,101923.23
2018-12-12T09:59:26.851Z,101918.81
2018-12-12T10:01:55.151Z,101925.91
2018-12-12T10:04:23.362Z,101918.40
2018-12-12T10:06:51.694Z,101915.73
2018-12-12T10:09:19.962Z,101916.16
2018-12-12T10:11:48.155Z,101921.05
2018-12-12T10:14:16.375Z,101925.45
2018-12-12T10:16:44.608Z,101921.52
2018-12-12T10:19:12.852Z,101922.38
2018-12-12T10:21:41.110Z,101925.47
2018-12-12T10:24:09.333Z,101914.40
2018-12-12T10:26:37.569Z,101922.81
2018-12-12T10:29:05.821Z,101918.83
2018-12-12T10:31:34.030Z,101916.62
2018-12-12T10:34:02.259Z,101905.13
2018-12-12T10:36:30.498Z,101908.27
2018-12-12T10:38:58.714Z,101915.78
2018-12-12T10:41:26.925Z,101918.89
2018-12-12T10:43:55.178Z,101910.94
2018-12-12T10:46:23.379Z,101909.62
2018-12-12T10:48:52.194Z,101918.50
2018-12-12T10:51:20.418Z,101914.96
2018-12-12T10:53:48.654Z,101916.26
2018-12-12T10:56:16.888Z,101915.39
2018-12-12T10:58:45.142Z,101914.50
2018-12-12T11:01:32.462Z,101916.72
2018-12-12T11:04:00.761Z,101922.48
2018-12-12T11:06:28.991Z,101917.19
2018-12-12T11:09:16.618Z,101921.17
2018-12-12T11:11:44.878Z,101914.98
2018-12-12T11:14:13.108Z,101918.52
2018-12-12T11:16:41.478Z,101920.73
2018-12-12T11:19:09.726Z,101919.39
2018-12-12T11:21:37.948Z,101920.72
2018-12-12T11:24:06.205Z,101919.83
2018-12-12T11:26:34.449Z,101926.48
2018-12-12T11:29:02.694Z,101922.47
2018-12-12T11:31:30.909Z,101921.14
2018-12-12T11:33:59.147Z,101925.56
2018-12-12T11:36:27.348Z,101914.53
2018-12-12T11:38:55.571Z,101922.04
2018-12-12T11:41:23.777Z,101922.95
2018-12-12T11:43:52.029Z,101914.54
2018-12-12T11:46:20.275Z,101913.20
2018-12-12T11:48:48.502Z,101925.58
2018-12-12T11:51:16.757Z,101926.04
2018-12-12T11:53:44.993Z,101924.28
2018-12-12T11:56:13.246Z,101921.63
2018-12-12T11:58:41.487Z,101918.97
2018-12-12T12:01:09.746Z,101926.94
2018-12-12T12:03:37.952Z,101923.39
2018-12-12T12:06:06.167Z,101923.84
2018-12-12T12:08:34.393Z,101919.84
2018-12-12T12:11:02.652Z,101922.05
2018-12-12T12:13:30.978Z,101923.83
2018-12-12T12:15:59.130Z,101925.16
2018-12-12T12:18:27.358Z,101925.60
2018-12-12T12:20:55.599Z,101920.72
2018-12-12T12:23:23.795Z,101929.59
2018-12-12T12:25:52.044Z,101928.73
2018-12-12T12:28:42.287Z,101928.28
2018-12-12T12:31:10.541Z,101929.14
2018-12-12T12:33:38.764Z,101926.94
2018-12-12T12:36:06.995Z,101930.03
2018-12-12T12:38:35.199Z,101920.72
2018-12-12T12:41:03.511Z,101920.29
2018-12-12T12:43:31.717Z,101931.80
2018-12-12T12:46:00.031Z,101926.92
2018-12-12T12:48:28.237Z,101930.03
2018-12-12T12:50:56.510Z,101929.56
2018-12-12T12:53:24.724Z,101923.39
2018-12-12T12:55:52.965Z,101928.25
2018-12-12T12:58:21.180Z,101923.84
2018-12-12T13:00:49.415Z,101929.56
2018-12-12T13:03:17.621Z,101926.05
2018-12-12T13:05:45.858Z,101926.94
2018-12-12T13:08:14.109Z,101929.56
2018-12-12T13:10:42.319Z,101930.89
2018-12-12T13:13:10.680Z,101929.13
2018-12-12T13:15:38.754Z,101924.27
2018-12-12T13:18:06.999Z,101924.28
2018-12-12T13:20:35.207Z,101931.80
2018-12-12T13:23:03.530Z,101931.36
2018-12-12T13:25:31.702Z,101934.47
2018-12-12T13:27:59.937Z,101933.58
2018-12-12T13:30:28.294Z,101934.48
2018-12-12T13:32:56.544Z,101932.25
2018-12-12T13:35:24.843Z,101936.24
2018-12-12T13:37:53.094Z,101941.98
2018-12-12T13:40:21.229Z,101943.77
2018-12-12T13:42:49.519Z,101945.98
2018-12-12T13:45:17.729Z,101947.30
2018-12-12T13:47:45.968Z,101949.48
2018-12-12T13:50:14.177Z,101949.95
2018-12-12T13:52:42.412Z,101954.36
2018-12-12T13:55:10.605Z,101950.81
2018-12-12T13:57:38.832Z,101951.27
2018-12-12T14:00:07.078Z,101956.13
2018-12-12T14:02:35.345Z,101955.25
2018-12-12T14:05:03.576Z,101953.91
2018-12-12T14:07:31.825Z,101953.90
2018-12-12T14:10:00.017Z,101962.77
2018-12-12T14:12:28.246Z,101964.09
2018-12-12T14:14:56.433Z,101960.55
2018-12-12T14:17:24.657Z,101960.09
2018-12-12T14:19:52.981Z,101961.86
2018-12-12T14:22:21.181Z,101961.39
2018-12-12T14:24:49.410Z,101961.86
2018-12-12T14:27:17.626Z,101954.32
2018-12-12T14:29:45.863Z,101960.52
2018-12-12T14:32:14.132Z,101965.82
2018-12-12T14:34:42.343Z,101969.82
2018-12-12T14:37:10.578Z,101967.13
2018-12-12T14:39:38.846Z,101966.24
2018-12-12T14:42:07.049Z,101970.20
2018-12-12T14:44:35.318Z,101969.31
2018-12-12T14:47:03.549Z,101975.94
2018-12-12T14:49:31.798Z,101965.77
2018-12-12T14:51:59.996Z,101977.71
2018-12-12T14:54:28.244Z,101978.13
2018-12-12T14:56:56.489Z,101972.35
2018-12-12T14:59:24.719Z,101980.78
2018-12-12T15:01:52.993Z,101989.16
2018-12-12T15:04:21.269Z,101996.20
2018-12-12T15:06:49.718Z,101997.06
2018-12-12T15:09:18.095Z,101995.72
2018-12-12T15:11:46.932Z,102004.56
2018-12-12T15:14:15.067Z,102005.87
2018-12-12T15:16:43.405Z,102004.10
2018-12-12T15:19:11.668Z,102009.84
2018-12-12T15:21:39.961Z,102006.75
2018-12-12T15:24:27.640Z,102008.50
2018-12-12T15:26:55.917Z,102015.58
2018-12-12T15:29:24.152Z,102014.61
2018-12-12T15:31:52.373Z,102015.94
2018-12-12T15:34:20.589Z,102015.47
2018-12-12T15:36:48.827Z,102017.67
2018-12-12T15:39:17.064Z,102022.98
2018-12-12T15:41:45.308Z,102023.39
2018-12-12T15:44:13.517Z,102030.50
2018-12-12T15:46:41.756Z,102026.52
2018-12-12T15:49:09.972Z,102024.31
2018-12-12T15:51:38.284Z,102027.40
2018-12-12T15:54:06.451Z,102026.52
2018-12-12T15:56:34.731Z,102028.73
2018-12-12T15:59:02.974Z,102038.02
2018-12-12T16:01:31.247Z,102041.11
2018-12-12T16:03:59.482Z,102029.17
2018-12-12T16:06:27.734Z,102034.92
2018-12-12T16:08:55.988Z,102037.98
2018-12-12T16:11:24.209Z,102043.73
2018-12-12T16:13:52.428Z,102048.62
2018-12-12T16:16:20.651Z,102050.36
2018-12-12T16:18:48.915Z,102042.84
2018-12-12T16:21:17.173Z,102042.38
2018-12-12T16:23:45.390Z,102037.55
2018-12-12T16:26:13.660Z,102044.20
2018-12-12T16:28:41.892Z,102038.89
2018-12-12T16:31:10.114Z,102037.13
2018-12-12T16:33:38.365Z,102038.01
2018-12-12T16:36:06.592Z,102038.05
2018-12-12T16:38:34.874Z,102034.92
2018-12-12T16:41:03.040Z,102034.89
2018-12-12T16:43:31.293Z,102046.83
2018-12-12T16:45:59.565Z,102044.17
2018-12-12T16:48:27.827Z,102046.83
2018-12-12T16:50:56.071Z,102050.80
2018-12-12T16:53:24.289Z,102055.22
2018-12-12T16:55:52.568Z,102055.22
2018-12-12T16:58:20.801Z,102053.45
2018-12-12T17:00:49.071Z,102053.42
2018-12-12T17:03:17.281Z,102061.83
2018-12-12T17:05:45.553Z,102060.06
2018-12-12T17:08:13.801Z,102061.35
2018-12-12T17:10:42.002Z,102064.86
2018-12-12T17:13:10.316Z,102063.53
2018-12-12T17:15:38.529Z,102055.55
2018-12-12T17:18:06.865Z,102067.06
2018-12-12T17:20:35.017Z,102058.23
2018-12-12T17:23:03.337Z,102057.28
2018-12-12T17:25:31.781Z,102063.87
2018-12-12T17:27:59.876Z,102061.15
2018-12-12T17:30:28.091Z,102066.45
2018-12-12T17:32:56.343Z,102063.33
2018-12-12T17:35:24.635Z,102066.41
2018-12-12T17:37:52.841Z,102067.70
2018-12-12T17:40:21.045Z,102069.47
2018-12-12T17:42:49.294Z,102067.70
2018-12-12T17:45:17.500Z,102070.31
2018-12-12T17:47:45.745Z,102062.33
2018-12-12T17:50:13.945Z,102069.43
2018-12-12T17:52:42.217Z,102066.30
2018-12-12T17:55:10.448Z,102070.23
2018-12-12T17:57:38.779Z,102073.73
2018-12-12T18:00:07.001Z,102077.70
2018-12-12T18:02:35.234Z,102076.39
2018-12-12T18:05:03.459Z,102079.03
2018-12-12T18:07:31.693Z,102077.70
2018-12-12T18:09:59.983Z,102079.91
2018-12-12T18:12:28.217Z,102083.85
2018-12-12T18:14:56.462Z,102082.08
2018-12-12T18:17:24.875Z,102079.88
2018-12-12T18:19:53.055Z,102083.41
2018-12-12T18:22:21.281Z,102086.94
2018-12-12T18:24:49.514Z,102086.05
2018-12-12T18:27:17.797Z,102085.61
2018-12-12T18:29:46.111Z,102086.95
2018-12-12T18:32:14.341Z,102086.50
2018-12-12T18:34:42.567Z,102093.56
2018-12-12T18:37:10.789Z,102094.01
2018-12-12T18:39:39.018Z,102093.12
2018-12-12T18:42:07.308Z,102095.77
2018-12-12T18:44:35.535Z,102102.34
2018-12-12T18:47:03.746Z,102107.16
2018-12-12T18:49:31.983Z,102107.16
2018-12-12T18:52:00.200Z,102098.77
2018-12-12T18:54:28.434Z,102098.73
2018-12-12T18:56:56.718Z,102106.67
2018-12-12T18:59:24.952Z,102105.80
2018-12-12T19:01:53.461Z,102104.08
2018-12-12T19:04:21.707Z,102098.77
2018-12-12T19:06:52.406Z,102104.52
2018-12-12T19:12:13.847Z,102108.09
2018-12-12T19:15:06.194Z,102109.86
2018-12-12T19:20:28.029Z,102113.39
2018-12-12T19:22:56.246Z,102116.97
2018-12-12T19:25:24.532Z,102120.10
2018-12-12T19:33:15.629Z,102122.71
2018-12-12T19:35:43.879Z,102126.25
2018-12-12T19:38:12.132Z,102127.57
2018-12-12T19:40:40.363Z,102123.19
2018-12-12T19:43:08.612Z,102125.36
2018-12-12T19:45:36.902Z,102124.08
2018-12-12T19:48:05.182Z,102123.67
2018-12-12T19:50:33.434Z,102125.89
2018-12-12T19:53:01.675Z,102123.68
2018-12-12T19:55:30.193Z,102121.07
2018-12-12T19:57:58.373Z,102121.07
2018-12-12T20:00:26.623Z,102115.73
2018-12-12T20:02:54.839Z,102124.13
2018-12-12T20:05:23.066Z,102112.67
2018-12-12T20:07:51.340Z,102114.01
2018-12-12T20:10:19.656Z,102116.22
2018-12-12T20:12:47.895Z,102125.09
2018-12-12T20:15:35.268Z,102118.91
2018-12-12T20:18:03.499Z,102116.26
2018-12-12T20:20:31.722Z,102112.28
2018-12-12T20:23:00.021Z,102111.80
2018-12-12T20:25:28.274Z,102114.01
2018-12-12T20:27:56.551Z,102111.39
2018-12-12T20:30:24.908Z,102120.67
2018-12-12T20:32:53.291Z,102117.14
2018-12-12T20:35:21.537Z,102118.91
2018-12-12T20:37:49.792Z,102115.81
2018-12-12T20:40:18.122Z,102114.97
2018-12-12T20:42:46.368Z,102117.62
2018-12-12T20:45:14.596Z,102112.31
2018-12-12T20:47:42.858Z,102113.69
2018-12-12T20:50:11.072Z,102118.98
2018-12-12T20:52:39.318Z,102120.27
2018-12-12T20:55:07.570Z,102120.31
2018-12-12T20:57:35.807Z,102115.49
2018-12-12T21:00:04.017Z,102116.86
2018-12-12T21:02:32.272Z,102123.05
2018-12-12T21:05:00.531Z,102123.48
2018-12-12T21:07:28.796Z,102124.81
2018-12-12T21:09:57.075Z,102124.36
2018-12-12T21:12:25.303Z,102123.92
2018-12-12T21:14:53.520Z,102117.73
2018-12-12T21:17:21.853Z,102125.66
2018-12-12T21:19:50.059Z,102125.69
2018-12-12T21:22:18.317Z,102119.50
2018-12-12T21:24:46.562Z,102125.25
2018-12-12T21:27:14.806Z,102115.13
2018-12-12T21:29:43.059Z,102120.02
2018-12-12T21:32:11.312Z,102121.35
2018-12-12T21:34:39.633Z,102112.92
2018-12-12T21:37:07.866Z,102119.17
2018-12-12T21:39:36.101Z,102110.75
2018-12-12T21:42:04.316Z,102119.17
2018-12-12T21:44:32.570Z,102112.99
2018-12-12T21:47:00.753Z,102115.20
2018-12-12T21:49:28.999Z,102107.62
2018-12-12T21:51:57.224Z,102104.08
2018-12-12T21:54:25.476Z,102102.83
2018-12-12T21:56:53.706Z,102100.66
2018-12-12T21:59:21.921Z,102095.80
2018-12-12T22:01:50.135Z,102096.64
2018-12-12T22:04:18.377Z,102099.33
2018-12-12T22:06:46.725Z,102090.97
2018-12-12T22:09:14.924Z,102095.31
2018-12-12T22:11:43.157Z,102093.14
2018-12-12T22:14:11.419Z,102097.59
2018-12-12T22:16:39.641Z,102097.59
2018-12-12T22:19:07.917Z,102102.02
2018-12-12T22:21:36.163Z,102096.23
2018-12-12T22:24:04.408Z,102098.41
2018-12-12T22:26:32.644Z,102097.52
2018-12-12T22:29:00.891Z,102094.39
2018-12-12T22:31:29.120Z,102088.21
2018-12-12T22:33:57.388Z,102095.20
2018-12-12T22:36:25.588Z,102089.47
2018-12-12T22:38:53.841Z,102091.67
2018-12-12T22:41:22.087Z,102088.98
2018-12-12T22:43:50.331Z,102095.17
2018-12-12T22:46:18.651Z,102087.22
2018-12-12T22:48:46.847Z,102093.36
2018-12-12T22:51:15.110Z,102093.36
2018-12-12T22:53:43.316Z,102095.61
2018-12-12T22:56:11.566Z,102092.92
2018-12-12T22:58:39.771Z,102089.80
2018-12-12T23:01:27.227Z,102082.32
2018-12-12T23:03:55.511Z,102086.30
2018-12-12T23:06:23.751Z,102082.24
2018-12-12T23:09:11.447Z,102084.45
2018-12-12T23:11:39.691Z,102089.27
2018-12-12T23:14:07.917Z,102094.13
2018-12-12T23:16:36.161Z,102092.41
2018-12-12T23:19:04.369Z,102094.61
2018-12-12T23:21:32.590Z,102095.49
2018-12-12T23:24:00.825Z,102092.37
2018-12-12T23:26:29.066Z,102092.80
2018-12-12T23:28:57.287Z,102092.41
2018-12-12T23:31:25.562Z,102093.28
2018-12-12T23:33:53.795Z,102084.85
2018-12-12T23:36:26.908Z,102085.34
2018-12-12T23:38:50.278Z,102084.41
2018-12-12T23:41:18.547Z,102082.69
2018-12-12T23:43:46.888Z,102080.40
2018-12-12T23:46:16.193Z,102084.86
2018-12-12T23:48:43.357Z,102080.44
2018-12-12T23:51:11.607Z,102079.48
2018-12-12T23:53:39.835Z,102075.14
2018-12-12T23:56:08.078Z,102076.46
2018-12-12T23:58:36.337Z,102077.39
